createdAt,value
2023-02-03T00:01:03.431Z,100252.86
2023-02-03T00:06:09.709Z,100253.09
2023-02-03T00:11:13.435Z,100254.77
2023-02-03T00:16:16.974Z,100254.06
2023-02-03T00:21:20.767Z,100267.78
2023-02-03T00:26:26.334Z,100267.61
2023-02-03T00:31:29.920Z,100267.51
2023-02-03T00:36:33.564Z,100271.08
2023-02-03T00:41:37.204Z,100272.17
2023-02-03T00:46:40.810Z,100262.82
2023-02-03T00:51:44.330Z,100262.13
2023-02-03T00:56:47.837Z,100261.88
2023-02-03T01:01:52.018Z,100254.55
2023-02-03T01:06:57.835Z,100251.87
2023-02-03T01:12:01.469Z,100244.38
2023-02-03T01:17:05.605Z,100242.70
2023-02-03T01:22:09.204Z,100242.06
2023-02-03T01:27:12.819Z,100235.17
2023-02-03T01:32:16.334Z,100223.52
2023-02-03T01:37:19.952Z,100218.14
2023-02-03T01:42:23.679Z,100207.02
2023-02-03T01:47:43.265Z,100207.56
2023-02-03T01:53:01.645Z,100193.73
2023-02-03T01:58:21.231Z,100182.91
2023-02-03T02:03:31.697Z,100181.20
2023-02-03T02:08:39.104Z,100173.71
2023-02-03T02:13:44.623Z,100175.64
2023-02-03T02:19:34.879Z,100170.91
2023-02-03T02:25:05.839Z,100164.96
2023-02-03T02:30:37.760Z,100158.27
2023-02-03T02:36:04.172Z,100150.41
2023-02-03T02:42:12.608Z,100150.04
2023-02-03T02:47:22.003Z,100141.64
2023-02-03T02:52:29.573Z,100134.25
2023-02-03T02:57:37.710Z,100126.77
2023-02-03T03:02:41.534Z,100118.54
2023-02-03T03:07:56.710Z,100119.07
2023-02-03T03:13:05.959Z,100122.86
2023-02-03T03:18:36.104Z,100121.63
2023-02-03T03:23:42.698Z,100122.40
2023-02-03T03:29:09.346Z,100118.88
2023-02-03T03:34:14.850Z,100123.27
2023-02-03T03:39:44.430Z,100130.75
2023-02-03T03:44:59.720Z,100131.86
2023-02-03T03:50:06.325Z,100133.63
2023-02-03T03:55:14.540Z,100126.41
2023-02-03T04:00:20.784Z,100116.57
2023-02-03T04:05:25.664Z,100103.77
2023-02-03T04:10:39.216Z,100091.77
2023-02-03T04:15:42.628Z,100087.15
2023-02-03T04:20:46.246Z,100076.52
2023-02-03T04:25:49.868Z,100075.38
2023-02-03T04:30:53.316Z,100070.60
2023-02-03T04:35:56.900Z,100067.68
2023-02-03T04:41:00.310Z,100059.54
2023-02-03T04:46:04.393Z,100050.83
2023-02-03T04:51:09.301Z,100051.38
2023-02-03T04:56:12.803Z,100051.70
2023-02-03T05:01:16.248Z,100046.46
2023-02-03T05:06:29.044Z,100046.40
2023-02-03T05:11:32.764Z,100036.15
2023-02-03T05:16:36.356Z,100020.89
2023-02-03T05:21:39.909Z,100010.41
2023-02-03T05:26:43.543Z,100007.86
2023-02-03T05:31:47.080Z,99998.99
2023-02-03T05:36:50.762Z,99987.36
2023-02-03T05:41:57.124Z,99980.89
2023-02-03T05:47:01.583Z,99970.85
2023-02-03T05:52:11.148Z,99966.00
2023-02-03T05:57:14.959Z,99952.11
2023-02-03T06:02:18.368Z,99939.70
2023-02-03T06:07:21.984Z,99937.06
2023-02-03T06:12:28.144Z,99937.20
2023-02-03T06:17:32.496Z,99931.94
2023-02-03T06:22:36.124Z,99924.06
2023-02-03T06:27:39.671Z,99915.48
2023-02-03T06:32:43.251Z,99907.60
2023-02-03T06:37:46.867Z,99895.30
2023-02-03T06:42:51.712Z,99887.86
2023-02-03T06:47:55.229Z,99877.73
2023-02-03T06:52:58.647Z,99866.88
2023-02-03T06:58:02.568Z,99866.44
2023-02-03T07:03:06.044Z,99859.37
2023-02-03T07:08:09.701Z,99846.48
2023-02-03T07:13:13.317Z,99843.77
2023-02-03T07:18:43.411Z,99828.81
2023-02-03T07:23:41.866Z,99821.30
2023-02-03T07:28:45.778Z,99818.53
2023-02-03T07:33:49.500Z,99811.02
2023-02-03T07:38:53.017Z,99803.52
2023-02-03T07:43:56.634Z,99789.23
2023-02-03T07:49:00.152Z,99778.88
2023-02-03T07:54:03.981Z,99774.29
2023-02-03T07:59:07.493Z,99762.55
2023-02-03T08:04:13.254Z,99753.69
2023-02-03T08:09:16.978Z,99745.61
2023-02-03T08:14:21.539Z,99736.64
2023-02-03T08:19:25.136Z,99729.83
2023-02-03T08:24:28.764Z,99719.64
2023-02-03T08:29:32.374Z,99708.73
2023-02-03T08:34:36.603Z,99695.29
2023-02-03T08:39:40.321Z,99676.77
2023-02-03T08:44:44.451Z,99675.90
2023-02-03T08:49:48.273Z,99665.31
2023-02-03T08:54:51.890Z,99650.60
2023-02-03T08:59:55.310Z,99643.98
2023-02-03T09:04:58.837Z,99641.81
2023-02-03T09:10:02.959Z,99634.10
2023-02-03T09:15:06.958Z,99613.53
2023-02-03T09:20:13.597Z,99597.09
2023-02-03T09:25:17.492Z,99594.89
2023-02-03T09:30:21.313Z,99582.47
2023-02-03T09:35:27.207Z,99563.97
2023-02-03T09:40:35.617Z,99553.98
2023-02-03T09:45:39.413Z,99541.32
2023-02-03T09:50:46.237Z,99528.70
2023-02-03T09:55:50.567Z,99512.64
2023-02-03T10:00:58.652Z,99502.20
2023-02-03T10:06:03.021Z,99496.40
2023-02-03T10:11:12.572Z,99484.04
2023-02-03T10:16:40.613Z,99465.39
2023-02-03T10:21:52.488Z,99447.02
2023-02-03T10:26:56.712Z,99431.89
2023-02-03T10:32:00.827Z,99415.42
2023-02-03T10:37:18.088Z,99401.67
2023-02-03T10:42:23.829Z,99379.76
2023-02-03T10:47:47.928Z,99359.77
2023-02-03T10:52:51.370Z,99340.88
2023-02-03T10:57:55.601Z,99313.56
2023-02-03T11:03:16.929Z,99299.69
2023-02-03T11:08:34.822Z,99284.75
2023-02-03T11:13:38.298Z,99269.91
2023-02-03T11:18:55.649Z,99264.94
2023-02-03T11:24:23.028Z,99253.34
2023-02-03T11:29:34.434Z,99241.63
2023-02-03T11:34:39.872Z,99237.00
2023-02-03T11:39:43.279Z,99225.65
2023-02-03T11:44:46.925Z,99213.17
2023-02-03T11:50:31.480Z,99200.20
2023-02-03T11:55:54.446Z,99188.23
2023-02-03T12:01:04.935Z,99173.65
2023-02-03T12:06:28.725Z,99160.74
2023-02-03T12:11:40.935Z,99150.78
2023-02-03T12:17:03.911Z,99129.91
2023-02-03T12:22:24.319Z,99111.23
2023-02-03T12:27:43.633Z,99100.23
2023-02-03T12:33:05.451Z,99080.56
2023-02-03T12:38:23.712Z,99066.14
2023-02-03T12:43:49.607Z,99049.09
2023-02-03T12:48:56.137Z,99044.27
2023-02-03T12:54:07.439Z,99032.27
2023-02-03T12:59:22.224Z,99015.00
2023-02-03T13:04:42.012Z,99008.41
2023-02-03T13:10:03.986Z,99001.67
2023-02-03T13:15:21.611Z,98993.41
2023-02-03T13:20:37.414Z,98991.30
2023-02-03T13:25:50.141Z,98988.02
2023-02-03T13:30:56.605Z,98975.94
2023-02-03T13:36:21.754Z,98971.98
2023-02-03T13:41:50.298Z,98961.63
2023-02-03T13:46:55.097Z,98952.39
2023-02-03T13:51:59.686Z,98951.92
2023-02-03T13:57:07.058Z,98937.00
2023-02-03T14:02:19.831Z,98933.31
2023-02-03T14:07:39.980Z,98936.14
2023-02-03T14:12:52.712Z,98928.17
2023-02-03T14:18:00.643Z,98923.33
2023-02-03T14:23:07.017Z,98923.91
2023-02-03T14:28:40.564Z,98922.92
2023-02-03T14:34:08.109Z,98915.25
2023-02-03T14:39:20.322Z,98913.70
2023-02-03T14:44:23.761Z,98907.73
2023-02-03T14:50:01.474Z,98897.02
2023-02-03T14:55:36.505Z,98887.36
2023-02-03T15:00:39.844Z,98878.15
2023-02-03T15:05:45.390Z,98873.39
2023-02-03T15:10:48.794Z,98873.59
2023-02-03T15:15:55.762Z,98874.66
2023-02-03T15:20:59.535Z,98872.05
2023-02-03T15:26:12.461Z,98871.70
2023-02-03T15:31:25.481Z,98877.09
2023-02-03T15:41:57.155Z,98900.06
2023-02-03T15:47:04.996Z,98910.00
2023-02-03T15:52:14.918Z,98914.44
2023-02-03T15:57:25.299Z,98913.81
2023-02-03T16:02:36.429Z,98916.11
2023-02-03T16:07:40.333Z,98922.89
2023-02-03T16:12:43.862Z,98942.51
2023-02-03T16:17:47.442Z,98944.78
2023-02-03T16:23:03.465Z,98954.38
2023-02-03T16:28:31.082Z,98968.69
2023-02-03T16:33:55.337Z,98966.65
2023-02-03T16:39:22.200Z,98961.40
2023-02-03T16:44:44.660Z,98967.17
2023-02-03T16:50:07.129Z,98969.95
2023-02-03T16:55:11.865Z,98979.33
2023-02-03T17:00:15.990Z,98980.84
2023-02-03T17:05:20.221Z,98974.72
2023-02-03T17:10:24.905Z,98982.38
2023-02-03T17:15:29.227Z,98988.77
2023-02-03T17:20:33.025Z,98998.23
2023-02-03T17:25:38.693Z,99007.63
2023-02-03T17:30:43.536Z,98996.29
2023-02-03T17:35:47.158Z,98999.86
2023-02-03T17:56:55.990Z,99018.36
2023-02-03T18:01:59.532Z,99025.86
2023-02-03T18:07:03.418Z,99028.07
2023-02-03T18:12:07.372Z,99042.89
2023-02-03T18:17:10.963Z,99049.08
2023-02-03T18:22:14.800Z,99046.45
2023-02-03T18:27:19.206Z,99056.27
2023-02-03T18:32:22.827Z,99067.52
2023-02-03T18:37:26.539Z,99047.17
2023-02-03T18:42:30.068Z,99054.89
2023-02-03T18:47:35.583Z,99068.27
2023-02-03T18:52:39.055Z,99088.39
2023-02-03T18:57:42.674Z,99102.02
2023-02-03T19:02:49.264Z,99099.89
2023-02-03T19:07:52.877Z,99115.90
2023-02-03T19:12:56.494Z,99127.02
2023-02-03T19:18:00.331Z,99131.31
2023-02-03T19:23:08.640Z,99132.01
2023-02-03T19:28:17.749Z,99137.05
2023-02-03T19:33:24.186Z,99138.83
2023-02-03T19:38:27.841Z,99153.64
2023-02-03T19:43:32.552Z,99199.14
2023-02-03T19:48:36.487Z,99222.83
2023-02-03T19:53:41.228Z,99222.74
2023-02-03T19:58:50.801Z,99223.35
2023-02-03T20:03:54.605Z,99235.84
2023-02-03T20:09:00.984Z,99226.70
2023-02-03T20:14:04.849Z,99232.86
2023-02-03T20:19:09.147Z,99241.88
2023-02-03T20:24:13.477Z,99259.98
2023-02-03T20:29:16.836Z,99271.28
2023-02-03T20:34:21.027Z,99279.18
2023-02-03T20:39:24.928Z,99294.17
2023-02-03T20:44:28.973Z,99304.33
2023-02-03T20:49:32.494Z,99306.13
2023-02-03T20:54:37.568Z,99314.77
2023-02-03T20:59:41.676Z,99338.29
2023-02-03T21:04:57.994Z,99359.46
2023-02-03T21:19:44.149Z,99415.26
2023-02-03T21:24:58.646Z,99441.10
2023-02-03T21:30:24.454Z,99451.52
2023-02-03T21:35:38.308Z,99471.00
2023-02-03T21:40:41.958Z,99490.55
2023-02-03T21:45:46.256Z,99510.04
2023-02-03T21:50:50.114Z,99535.80
2023-02-03T21:55:54.193Z,99554.23
2023-02-03T22:00:59.985Z,99565.80
2023-02-03T22:06:09.307Z,99577.58
2023-02-03T22:11:13.727Z,99589.29
2023-02-03T22:16:18.366Z,99610.98
2023-02-03T22:21:21.648Z,99628.34
2023-02-03T22:26:25.576Z,99642.59
2023-02-03T22:31:29.817Z,99650.89
2023-02-03T22:36:33.834Z,99658.65
2023-02-03T22:41:38.898Z,99665.17
2023-02-03T22:46:42.910Z,99684.11
2023-02-03T22:51:46.426Z,99691.71
2023-02-03T22:56:50.252Z,99692.42
2023-02-03T23:01:54.173Z,99703.09
2023-02-03T23:06:57.585Z,99724.61
2023-02-03T23:12:01.416Z,99736.52
2023-02-03T23:17:04.933Z,99751.77
2023-02-03T23:22:08.547Z,99760.91
2023-02-03T23:27:12.779Z,99776.45
2023-02-03T23:32:18.143Z,99793.09
2023-02-03T23:37:22.883Z,99807.27
2023-02-03T23:42:26.398Z,99823.34
2023-02-03T23:47:30.117Z,99847.50
2023-02-03T23:52:35.953Z,99856.95
2023-02-03T23:57:42.833Z,99866.69
